David L. Griggs — WDE5778 — position and weather

sailwx.info

Track history (hours):
 
Tides and Currents Weather Stations Pressure Air Temp Water Temp Dewpoint Dewpoint Depression Visibility Wind Speed Wind Dir Waves Ship Positions

David L. Griggs

Owner: Marquette Transportation Company, LLC, Paducah, KY. More information available from US FCC via Universal Licensing System and Coast Guard Vessel Documentation Center.

Last reported at 2016-Jan-25 22:10 UTC. Time now 2016-Feb-06 20:43 UTC.
Position N 31°60' W 091°05'.
Warning: this ship's position is 11 days out of date.

Length 42 m; draft 3 m.

Type: Towing. MMSI: 367371510.

Date/timePositionNaut miles runAvg speedWind from/ knotsBaromVisibWave heightAir tempDewpointWater temp
2016-Jan-25 22:10N 31°60' W 091°05'6 8.5
2016-Jan-25 21:25N 32°06' W 091°06'6 7.5
2016-Jan-25 20:33N 32°10' W 090°60'1010.1
2016-Jan-25 19:33N 32°19' W 090°54'7 7.4
2016-Jan-25 18:33N 32°25' W 090°60'8 8.0
2016-Jan-25 17:33N 32°30' W 091°07'4 4.2
2016-Jan-25 16:29N 32°35' W 091°07'0 0.0
2016-Jan-25 15:32N 32°35' W 091°07'0 0.0
2016-Jan-25 10:33N 32°35' W 091°07'0 0.0
2016-Jan-25 09:32N 32°35' W 091°07'0 0.0
2016-Jan-25 08:23N 32°35' W 091°07'0 0.0
2016-Jan-25 07:18N 32°35' W 091°07'0 0.0
2016-Jan-25 06:30N 32°35' W 091°07'0 0.0
2016-Jan-25 05:29N 32°35' W 091°07'0 0.0
2016-Jan-25 04:32N 32°35' W 091°07'0 0.0
2016-Jan-25 03:30N 32°35' W 091°07'0 0.0
2016-Jan-25 00:17N 32°35' W 091°07'0 0.0
2016-Jan-24 23:33N 32°35' W 091°07'0 0.0
2016-Jan-24 22:31N 32°35' W 091°07'0 0.0
2016-Jan-24 21:32N 32°35' W 091°07'0 0.0
2016-Jan-24 18:05N 32°35' W 091°07'0 0.0
2016-Jan-24 17:33N 32°35' W 091°07'0 0.0
2016-Jan-24 16:30N 32°35' W 091°07'0 0.0
2016-Jan-24 15:30N 32°35' W 091°07'1 0.9
2016-Jan-24 14:29N 32°35' W 091°08'  
Track history (hours):
 
Tides and Currents Weather Stations Pressure Air Temp Water Temp Dewpoint Dewpoint Depression Visibility Wind Speed Wind Dir Waves Ship Positions

David L. Griggs

Owner: Marquette Transportation Company, LLC, Paducah, KY. More information available from US FCC via Universal Licensing System and Coast Guard Vessel Documentation Center.

Last reported at 2016-Jan-25 22:10 UTC. Time now 2016-Feb-06 20:43 UTC.
Position N 31°60' W 091°05'.
Warning: this ship's position is 11 days out of date.

Length 42 m; draft 3 m.

Type: Towing. MMSI: 367371510.

Date/timePositionNaut miles runAvg speedWind from/ knotsBaromVisibWave heightAir tempDewpointWater temp
2016-Jan-25 22:10N 31°60' W 091°05'6 8.5
2016-Jan-25 21:25N 32°06' W 091°06'6 7.5
2016-Jan-25 20:33N 32°10' W 090°60'1010.1
2016-Jan-25 19:33N 32°19' W 090°54'7 7.4
2016-Jan-25 18:33N 32°25' W 090°60'8 8.0
2016-Jan-25 17:33N 32°30' W 091°07'4 4.2
2016-Jan-25 16:29N 32°35' W 091°07'0 0.0
2016-Jan-25 15:32N 32°35' W 091°07'0 0.0
2016-Jan-25 10:33N 32°35' W 091°07'0 0.0
2016-Jan-25 09:32N 32°35' W 091°07'0 0.0
2016-Jan-25 08:23N 32°35' W 091°07'0 0.0
2016-Jan-25 07:18N 32°35' W 091°07'0 0.0
2016-Jan-25 06:30N 32°35' W 091°07'0 0.0
2016-Jan-25 05:29N 32°35' W 091°07'0 0.0
2016-Jan-25 04:32N 32°35' W 091°07'0 0.0
2016-Jan-25 03:30N 32°35' W 091°07'0 0.0
2016-Jan-25 00:17N 32°35' W 091°07'0 0.0
2016-Jan-24 23:33N 32°35' W 091°07'0 0.0
2016-Jan-24 22:31N 32°35' W 091°07'0 0.0
2016-Jan-24 21:32N 32°35' W 091°07'0 0.0
2016-Jan-24 18:05N 32°35' W 091°07'0 0.0
2016-Jan-24 17:33N 32°35' W 091°07'0 0.0
2016-Jan-24 16:30N 32°35' W 091°07'0 0.0
2016-Jan-24 15:30N 32°35' W 091°07'1 0.9
2016-Jan-24 14:29N 32°35' W 091°08'  

Dump ship's entire track history